createdAt,value
2019-02-11T00:00:49.269Z,995.04
2019-02-11T00:01:49.192Z,995.00
2019-02-11T00:02:49.184Z,995.07
2019-02-11T00:03:49.137Z,995.06
2019-02-11T00:04:50.112Z,995.12
2019-02-11T00:05:49.102Z,995.18
2019-02-11T00:06:49.050Z,995.15
2019-02-11T00:07:49.013Z,995.16
2019-02-11T00:08:48.981Z,995.24
2019-02-11T00:09:48.939Z,995.26
2019-02-11T00:10:48.929Z,995.32
2019-02-11T00:11:48.892Z,995.27
2019-02-11T00:12:48.881Z,995.30
2019-02-11T00:13:48.824Z,995.40
2019-02-11T00:14:48.806Z,995.37
2019-02-11T00:15:48.770Z,995.39
2019-02-11T00:16:48.771Z,995.47
2019-02-11T00:17:48.719Z,995.50
2019-02-11T00:18:48.679Z,995.46
2019-02-11T00:19:48.647Z,995.53
2019-02-11T00:20:48.618Z,995.58
2019-02-11T00:21:48.605Z,995.53
2019-02-11T00:22:48.553Z,995.61
2019-02-11T00:23:48.527Z,995.63
2019-02-11T00:24:48.516Z,995.66
2019-02-11T00:25:48.466Z,995.67
2019-02-11T00:26:48.432Z,995.75
2019-02-11T00:27:48.407Z,995.75
2019-02-11T00:28:48.394Z,995.87
2019-02-11T00:29:48.341Z,995.84
2019-02-11T00:30:48.318Z,995.86
2019-02-11T00:31:48.294Z,995.94
2019-02-11T00:32:48.322Z,995.93
2019-02-11T00:33:48.218Z,995.96
2019-02-11T00:34:48.191Z,995.95
2019-02-11T00:35:48.160Z,995.97
2019-02-11T00:36:48.128Z,996.05
2019-02-11T00:37:48.094Z,996.08
2019-02-11T00:38:48.074Z,996.11
2019-02-11T00:39:48.034Z,996.17
2019-02-11T00:40:48.004Z,996.19
2019-02-11T00:41:47.976Z,996.15
2019-02-11T00:42:47.946Z,996.17
2019-02-11T00:43:47.910Z,996.21
2019-02-11T00:44:47.893Z,996.23
2019-02-11T00:45:47.870Z,996.27
2019-02-11T00:46:47.830Z,996.28
2019-02-11T00:47:47.791Z,996.30
2019-02-11T00:48:47.771Z,996.38
2019-02-11T00:49:47.731Z,996.41
2019-02-11T00:50:47.701Z,996.38
2019-02-11T00:51:47.670Z,996.42
2019-02-11T00:52:47.644Z,996.44
2019-02-11T00:53:47.849Z,996.45
2019-02-11T00:54:47.581Z,996.51
2019-02-11T00:55:47.548Z,996.55
2019-02-11T00:56:47.519Z,996.59
2019-02-11T00:57:47.498Z,996.60
2019-02-11T00:58:47.458Z,996.62
2019-02-11T00:59:47.423Z,996.69
2019-02-11T01:00:47.399Z,996.67
2019-02-11T01:01:47.365Z,996.74
2019-02-11T01:02:47.341Z,996.75
2019-02-11T01:03:47.308Z,996.76
2019-02-11T01:04:47.274Z,996.81
2019-02-11T01:05:47.249Z,996.83
2019-02-11T01:06:47.215Z,996.80
2019-02-11T01:07:47.180Z,996.82
2019-02-11T01:08:47.150Z,996.84
2019-02-11T01:09:47.116Z,996.82
2019-02-11T01:10:47.096Z,996.92
2019-02-11T01:11:47.059Z,996.94
2019-02-11T01:12:47.031Z,996.90
2019-02-11T01:13:47.031Z,996.93
2019-02-11T01:14:46.975Z,996.95
2019-02-11T01:15:46.940Z,997.04
2019-02-11T01:16:46.914Z,997.02
2019-02-11T01:17:46.877Z,997.11
2019-02-11T01:18:53.681Z,997.07
2019-02-11T01:19:46.817Z,997.11
2019-02-11T01:20:46.791Z,997.05
2019-02-11T01:21:46.775Z,997.12
2019-02-11T01:22:48.739Z,997.18
2019-02-11T01:23:46.689Z,997.13
2019-02-11T01:24:46.666Z,997.23
2019-02-11T01:25:46.629Z,997.22
2019-02-11T01:26:46.616Z,997.28
2019-02-11T01:27:46.567Z,997.34
2019-02-11T01:28:46.548Z,997.31
2019-02-11T01:29:46.506Z,997.38
2019-02-11T01:30:46.488Z,997.34
2019-02-11T01:31:46.447Z,997.42
2019-02-11T01:32:46.426Z,997.47
2019-02-11T01:33:46.394Z,997.38
2019-02-11T01:34:46.358Z,997.47
2019-02-11T01:35:46.323Z,997.54
2019-02-11T01:36:46.303Z,997.49
2019-02-11T01:37:46.261Z,997.55
2019-02-11T01:38:46.240Z,997.59
2019-02-11T01:39:46.205Z,997.57
2019-02-11T01:40:46.178Z,997.70
2019-02-11T01:41:46.141Z,997.69
2019-02-11T01:42:46.113Z,997.72
2019-02-11T01:43:46.078Z,997.72
2019-02-11T01:44:46.059Z,997.78
2019-02-11T01:45:46.019Z,997.76
2019-02-11T01:46:45.996Z,997.77
2019-02-11T01:47:45.960Z,997.82
2019-02-11T01:48:45.932Z,997.84
2019-02-11T01:49:45.898Z,997.87
2019-02-11T01:50:45.871Z,997.88
2019-02-11T01:51:45.838Z,997.88
2019-02-11T01:52:45.811Z,997.85
2019-02-11T01:53:45.775Z,997.88
2019-02-11T01:54:45.751Z,997.90
2019-02-11T01:55:45.718Z,997.92
2019-02-11T01:56:45.690Z,997.92
2019-02-11T01:57:45.651Z,997.97
2019-02-11T01:58:45.621Z,997.99
2019-02-11T01:59:45.594Z,998.00
2019-02-11T02:00:45.679Z,997.99
2019-02-11T02:01:45.530Z,998.05
2019-02-11T02:02:45.589Z,998.05
2019-02-11T02:03:45.476Z,998.04
2019-02-11T02:04:45.494Z,998.06
2019-02-11T02:05:45.410Z,998.08
2019-02-11T02:06:45.407Z,998.08
2019-02-11T02:07:45.346Z,998.07
2019-02-11T02:08:45.420Z,998.13
2019-02-11T02:09:45.288Z,998.14
2019-02-11T02:10:45.339Z,998.13
2019-02-11T02:11:45.227Z,998.17
2019-02-11T02:12:45.247Z,998.12
2019-02-11T02:13:45.229Z,998.18
2019-02-11T02:14:45.153Z,998.19
2019-02-11T02:15:45.108Z,998.20
2019-02-11T02:16:45.169Z,998.23
2019-02-11T02:17:45.045Z,998.23
2019-02-11T02:18:45.078Z,998.26
2019-02-11T02:19:44.991Z,998.29
2019-02-11T02:20:44.951Z,998.28
2019-02-11T02:21:44.991Z,998.31
2019-02-11T02:22:44.894Z,998.29
2019-02-11T02:23:44.862Z,998.34
2019-02-11T02:24:44.915Z,998.35
2019-02-11T02:25:44.809Z,998.33
2019-02-11T02:26:44.829Z,998.36
2019-02-11T02:27:44.740Z,998.40
2019-02-11T02:28:44.743Z,998.39
2019-02-11T02:29:44.677Z,998.42
2019-02-11T02:30:44.749Z,998.43
2019-02-11T02:31:44.619Z,998.43
2019-02-11T02:32:44.710Z,998.49
2019-02-11T02:33:44.559Z,998.51
2019-02-11T02:34:44.577Z,998.51
2019-02-11T02:35:44.503Z,998.57
2019-02-11T02:36:44.499Z,998.58
2019-02-11T02:37:44.439Z,998.59
2019-02-11T02:38:44.498Z,998.62
2019-02-11T02:39:44.366Z,998.67
2019-02-11T02:40:44.365Z,998.69
2019-02-11T02:41:44.307Z,998.70
2019-02-11T02:42:44.375Z,998.71
2019-02-11T02:43:44.248Z,998.73
2019-02-11T02:44:44.290Z,998.76
2019-02-11T02:45:44.192Z,998.79
2019-02-11T02:46:44.202Z,998.79
2019-02-11T02:47:44.139Z,998.85
2019-02-11T02:48:44.217Z,998.90
2019-02-11T02:49:44.064Z,998.87
2019-02-11T02:50:44.127Z,998.88
2019-02-11T02:51:43.998Z,998.88
2019-02-11T02:52:44.037Z,998.92
2019-02-11T02:53:43.941Z,998.90
2019-02-11T02:54:43.951Z,998.89
2019-02-11T02:55:43.881Z,998.89
2019-02-11T02:56:43.964Z,998.93
2019-02-11T02:57:43.821Z,998.90
2019-02-11T02:58:43.872Z,998.91
2019-02-11T02:59:43.760Z,998.93
2019-02-11T03:00:43.787Z,998.96
2019-02-11T03:01:43.708Z,998.99
2019-02-11T03:02:43.707Z,999.02
2019-02-11T03:03:43.635Z,999.04
2019-02-11T03:04:43.705Z,998.99
2019-02-11T03:05:43.586Z,999.06
2019-02-11T03:06:43.618Z,999.09
2019-02-11T03:07:43.517Z,999.07
2019-02-11T03:08:43.531Z,999.10
2019-02-11T03:09:43.462Z,999.12
2019-02-11T03:10:43.446Z,999.14
2019-02-11T03:11:43.391Z,999.21
2019-02-11T03:12:43.459Z,999.21
2019-02-11T03:13:43.332Z,999.21
2019-02-11T03:14:43.370Z,999.17
2019-02-11T03:15:43.293Z,999.31
2019-02-11T03:16:43.284Z,999.23
2019-02-11T03:17:43.210Z,999.24
2019-02-11T03:18:43.192Z,999.20
2019-02-11T03:19:43.140Z,999.21
2019-02-11T03:20:43.201Z,999.33
2019-02-11T03:21:43.131Z,999.31
2019-02-11T03:22:43.119Z,999.31
2019-02-11T03:23:43.045Z,999.30
2019-02-11T03:24:44.090Z,999.29
2019-02-11T03:25:42.955Z,999.33
2019-02-11T03:26:43.059Z,999.35
2019-02-11T03:27:42.893Z,999.42
2019-02-11T03:28:42.954Z,999.44
2019-02-11T03:29:42.837Z,999.47
2019-02-11T03:30:42.880Z,999.51
2019-02-11T03:31:42.788Z,999.52
2019-02-11T03:32:42.791Z,999.51
2019-02-11T03:33:42.718Z,999.57
2019-02-11T03:34:42.803Z,999.52
2019-02-11T03:35:42.689Z,999.60
2019-02-11T03:36:42.738Z,999.59
2019-02-11T03:37:42.659Z,999.65
2019-02-11T03:38:42.632Z,999.67
2019-02-11T03:39:42.533Z,999.68
2019-02-11T03:40:42.539Z,999.67
2019-02-11T03:41:42.475Z,999.68
2019-02-11T03:42:42.549Z,999.78
2019-02-11T03:43:42.428Z,999.80
2019-02-11T03:44:42.460Z,999.74
2019-02-11T03:45:42.352Z,999.77
2019-02-11T03:46:42.359Z,999.87
2019-02-11T03:47:42.312Z,999.89
2019-02-11T03:48:42.379Z,999.90
2019-02-11T03:49:42.238Z,999.88
2019-02-11T03:50:42.298Z,999.86
2019-02-11T03:51:42.171Z,999.99
2019-02-11T03:52:42.196Z,999.97
2019-02-11T03:53:42.107Z,1000.05
2019-02-11T03:54:42.129Z,1000.02
2019-02-11T03:55:42.052Z,1000.02
2019-02-11T03:56:42.124Z,1000.04
2019-02-11T03:57:41.984Z,1000.05
2019-02-11T03:58:43.071Z,1000.08
2019-02-11T03:59:41.929Z,1000.10
2019-02-11T04:00:41.946Z,1000.11
2019-02-11T04:01:41.853Z,1000.16
2019-02-11T04:02:41.828Z,1000.13
2019-02-11T04:03:41.862Z,1000.18
2019-02-11T04:04:41.786Z,1000.24
2019-02-11T04:05:41.737Z,1000.22
2019-02-11T04:06:41.757Z,1000.27
2019-02-11T04:07:41.699Z,1000.32
2019-02-11T04:08:42.767Z,1000.34
2019-02-11T04:09:41.640Z,1000.32
2019-02-11T04:10:41.674Z,1000.36
2019-02-11T04:11:41.556Z,1000.33
2019-02-11T04:12:41.589Z,1000.39
2019-02-11T04:13:41.499Z,1000.42
2019-02-11T04:14:43.544Z,1000.43
2019-02-11T04:15:41.437Z,1000.44
2019-02-11T04:16:41.509Z,1000.50
2019-02-11T04:17:41.385Z,1000.54
2019-02-11T04:18:41.423Z,1000.48
2019-02-11T04:19:41.331Z,1000.53
2019-02-11T04:20:41.331Z,1000.51
2019-02-11T04:21:41.258Z,1000.57
2019-02-11T04:22:41.244Z,1000.55
2019-02-11T04:23:41.191Z,1000.63
2019-02-11T04:24:41.258Z,1000.70
2019-02-11T04:25:41.128Z,1000.62
2019-02-11T04:26:41.169Z,1000.67
2019-02-11T04:27:41.062Z,1000.66
2019-02-11T04:28:41.079Z,1000.62
2019-02-11T04:29:41.013Z,1000.74
2019-02-11T04:30:40.994Z,1000.74
2019-02-11T04:31:40.967Z,1000.77
2019-02-11T04:32:41.004Z,1000.78
2019-02-11T04:33:40.890Z,1000.82
2019-02-11T04:34:40.915Z,1000.87
2019-02-11T04:35:40.821Z,1000.89
2019-02-11T04:36:40.835Z,1000.93
2019-02-11T04:37:40.780Z,1000.96
2019-02-11T04:38:40.810Z,1000.98
2019-02-11T04:39:40.691Z,1000.88
2019-02-11T04:40:40.719Z,1000.96
2019-02-11T04:41:40.635Z,1000.99
2019-02-11T04:42:40.649Z,1000.98
2019-02-11T04:43:40.581Z,1001.11
2019-02-11T04:44:40.635Z,1001.03
2019-02-11T04:45:40.511Z,1001.10
2019-02-11T04:46:40.549Z,1001.07
2019-02-11T04:47:40.452Z,1001.05
2019-02-11T04:48:40.458Z,1001.07
2019-02-11T04:49:40.389Z,1001.19
2019-02-11T04:50:40.383Z,1001.15
2019-02-11T04:51:40.336Z,1001.23
2019-02-11T04:52:40.409Z,1001.21
2019-02-11T04:53:40.263Z,1001.28
2019-02-11T04:54:40.294Z,1001.28
2019-02-11T04:55:40.207Z,1001.24
2019-02-11T04:56:40.219Z,1001.32
2019-02-11T04:57:40.143Z,1001.38
2019-02-11T04:58:40.241Z,1001.41
2019-02-11T04:59:40.076Z,1001.46
2019-02-11T05:00:40.090Z,1001.46
2019-02-11T05:01:40.036Z,1001.35
2019-02-11T05:02:41.022Z,1001.43
2019-02-11T05:03:39.964Z,1001.44
2019-02-11T05:04:46.782Z,1001.33
2019-02-11T05:05:39.903Z,1001.43
2019-02-11T05:06:40.931Z,1001.45
2019-02-11T05:07:39.828Z,1001.48
2019-02-11T05:08:39.957Z,1001.47
2019-02-11T05:09:39.770Z,1001.56
2019-02-11T05:10:39.848Z,1001.52
2019-02-11T05:11:39.715Z,1001.54
2019-02-11T05:12:47.338Z,1001.58
2019-02-11T05:13:39.650Z,1001.53
2019-02-11T05:15:39.595Z,1001.66
2019-02-11T05:16:40.593Z,1001.70
2019-02-11T05:17:39.527Z,1001.73
2019-02-11T05:18:40.616Z,1001.74
2019-02-11T05:19:39.478Z,1001.75
2019-02-11T05:20:40.549Z,1001.75
2019-02-11T05:21:39.443Z,1001.75
2019-02-11T05:22:41.519Z,1001.74
2019-02-11T05:23:39.364Z,1001.75
2019-02-11T05:24:48.394Z,1001.81
2019-02-11T05:25:39.299Z,1001.87
2019-02-11T05:26:39.337Z,1001.83
2019-02-11T05:27:39.232Z,1001.84
2019-02-11T05:28:53.789Z,1001.88
2019-02-11T05:29:39.166Z,1001.86
2019-02-11T05:30:46.839Z,1001.95
2019-02-11T05:31:39.128Z,1001.94
2019-02-11T05:32:46.759Z,1001.96
2019-02-11T05:33:39.038Z,1001.92
2019-02-11T05:34:46.780Z,1001.94
2019-02-11T05:35:38.990Z,1001.93
2019-02-11T05:36:38.995Z,1001.91
2019-02-11T05:37:38.936Z,1001.94
2019-02-11T05:38:39.016Z,1001.91
2019-02-11T05:39:38.854Z,1002.00
2019-02-11T05:40:53.799Z,1001.96
2019-02-11T05:41:38.808Z,1001.93
2019-02-11T05:42:38.840Z,1002.00
2019-02-11T05:43:38.749Z,1002.08
2019-02-11T05:44:39.807Z,1002.02
2019-02-11T05:45:38.663Z,1002.08
2019-02-11T05:46:38.661Z,1002.09
2019-02-11T05:47:38.617Z,1002.15
2019-02-11T05:48:38.665Z,1002.14
2019-02-11T05:49:38.541Z,1002.22
2019-02-11T05:50:38.599Z,1002.12
2019-02-11T05:51:38.493Z,1002.17
2019-02-11T05:52:38.502Z,1002.15
2019-02-11T05:53:38.428Z,1002.12
2019-02-11T05:54:38.517Z,1002.20
2019-02-11T05:55:38.363Z,1002.18
2019-02-11T05:56:38.435Z,1002.17
2019-02-11T05:57:38.307Z,1002.16
2019-02-11T05:58:38.327Z,1002.24
2019-02-11T05:59:38.242Z,1002.25
2019-02-11T06:00:38.272Z,1002.27
2019-02-11T06:01:38.176Z,1002.34
2019-02-11T06:02:38.259Z,1002.37
2019-02-11T06:03:38.110Z,1002.36
2019-02-11T06:04:39.186Z,1002.36
2019-02-11T06:05:38.063Z,1002.42
2019-02-11T06:06:40.119Z,1002.41
2019-02-11T06:07:37.988Z,1002.39
2019-02-11T06:08:38.004Z,1002.45
2019-02-11T06:09:37.941Z,1002.46
2019-02-11T06:10:38.016Z,1002.50
2019-02-11T06:11:37.865Z,1002.53
2019-02-11T06:12:37.926Z,1002.65
2019-02-11T06:13:37.809Z,1002.63
2019-02-11T06:14:37.829Z,1002.61
2019-02-11T06:15:37.744Z,1002.62
2019-02-11T06:16:37.734Z,1002.63
2019-02-11T06:17:37.687Z,1002.70
2019-02-11T06:18:37.773Z,1002.72
2019-02-11T06:19:37.645Z,1002.74
2019-02-11T06:20:38.718Z,1002.65
2019-02-11T06:21:37.581Z,1002.77
2019-02-11T06:22:37.577Z,1002.78
2019-02-11T06:23:37.511Z,1002.80
2019-02-11T06:24:37.487Z,1002.87
2019-02-11T06:25:37.453Z,1002.82
2019-02-11T06:26:37.443Z,1002.91
2019-02-11T06:27:37.388Z,1002.88
2019-02-11T06:28:37.443Z,1003.01
2019-02-11T06:29:37.312Z,1003.04
2019-02-11T06:30:37.362Z,1003.06
2019-02-11T06:31:37.259Z,1003.12
2019-02-11T06:32:37.247Z,1003.13
2019-02-11T06:33:37.200Z,1003.17
2019-02-11T06:34:37.183Z,1003.24
2019-02-11T06:35:37.134Z,1003.22
2019-02-11T06:36:37.208Z,1003.28
2019-02-11T06:37:37.071Z,1003.32
2019-02-11T06:38:37.158Z,1003.33
2019-02-11T06:39:37.015Z,1003.31
2019-02-11T06:40:37.065Z,1003.42
2019-02-11T06:41:36.968Z,1003.48
2019-02-11T06:42:36.931Z,1003.54
2019-02-11T06:43:36.884Z,1003.53
2019-02-11T06:44:36.951Z,1003.54
2019-02-11T06:45:36.814Z,1003.61
2019-02-11T06:46:37.898Z,1003.60
2019-02-11T06:47:36.756Z,1003.64
2019-02-11T06:48:36.732Z,1003.66
2019-02-11T06:49:36.696Z,1003.67
2019-02-11T06:50:36.666Z,1003.67
2019-02-11T06:51:36.697Z,1003.72
2019-02-11T06:52:36.605Z,1003.75
2019-02-11T06:53:36.582Z,1003.71
2019-02-11T06:54:36.544Z,1003.74
2019-02-11T06:55:36.520Z,1003.75
2019-02-11T06:56:36.508Z,1003.84
2019-02-11T06:57:36.455Z,1003.92
2019-02-11T06:58:36.415Z,1003.89
2019-02-11T06:59:36.394Z,1003.91
2019-02-11T07:00:36.354Z,1003.99
2019-02-11T07:01:37.328Z,1004.03
2019-02-11T07:02:36.303Z,1003.97
2019-02-11T07:03:36.265Z,1003.99
2019-02-11T07:04:36.236Z,1004.03
2019-02-11T07:05:36.269Z,1004.00
2019-02-11T07:06:36.171Z,1003.96
2019-02-11T07:07:36.748Z,1004.06
2019-02-11T07:08:36.137Z,1004.05
2019-02-11T07:09:36.079Z,1004.13
2019-02-11T07:10:36.041Z,1004.10
2019-02-11T07:11:36.047Z,1004.15
2019-02-11T07:12:35.984Z,1004.12
2019-02-11T07:13:36.027Z,1004.21
2019-02-11T07:14:35.927Z,1004.20
2019-02-11T07:15:35.939Z,1004.24
2019-02-11T07:16:35.867Z,1004.24
2019-02-11T07:17:35.944Z,1004.27
2019-02-11T07:18:37.157Z,1004.23
2019-02-11T07:19:35.792Z,1004.23
2019-02-11T07:20:35.761Z,1004.29
2019-02-11T07:21:35.714Z,1004.29
2019-02-11T07:22:35.777Z,1004.32
2019-02-11T07:23:35.649Z,1004.33
2019-02-11T07:24:35.686Z,1004.30
2019-02-11T07:25:35.621Z,1004.34
2019-02-11T07:26:35.594Z,1004.36
2019-02-11T07:27:35.528Z,1004.38
2019-02-11T07:28:35.612Z,1004.41
2019-02-11T07:29:35.459Z,1004.45
2019-02-11T07:30:35.523Z,1004.42
2019-02-11T07:31:35.434Z,1004.53
2019-02-11T07:32:42.273Z,1004.58
2019-02-11T07:33:35.347Z,1004.55
2019-02-11T07:34:35.320Z,1004.59
2019-02-11T07:35:35.284Z,1004.62
2019-02-11T07:37:35.234Z,1004.67
2019-02-11T07:38:36.186Z,1004.71
2019-02-11T07:39:35.157Z,1004.74
2019-02-11T07:40:56.154Z,1004.80
2019-02-11T07:41:35.111Z,1004.83
2019-02-11T07:42:49.829Z,1004.75
2019-02-11T07:43:35.129Z,1004.85
2019-02-11T07:44:36.154Z,1004.87
2019-02-11T07:45:34.990Z,1004.91
2019-02-11T07:46:41.974Z,1004.85
2019-02-11T07:47:34.926Z,1004.90
2019-02-11T07:48:34.955Z,1004.96
2019-02-11T07:49:34.888Z,1004.92
2019-02-11T07:50:36.010Z,1004.92
2019-02-11T07:51:42.120Z,1004.91
2019-02-11T07:52:36.866Z,1005.00
2019-02-11T07:53:34.748Z,1005.01
2019-02-11T07:54:34.784Z,1004.98
2019-02-11T07:55:34.686Z,1005.07
2019-02-11T07:56:41.359Z,1004.99
2019-02-11T07:57:34.652Z,1005.03
2019-02-11T07:58:34.580Z,1005.07
2019-02-11T07:59:34.613Z,1005.04
2019-02-11T08:00:36.685Z,1005.05
2019-02-11T08:01:34.597Z,1005.05
2019-02-11T08:02:42.314Z,1005.10
2019-02-11T08:03:34.433Z,1005.10
2019-02-11T08:04:42.340Z,1005.20
2019-02-11T08:05:34.400Z,1005.18
2019-02-11T08:06:55.447Z,1005.20
2019-02-11T08:07:34.354Z,1005.19
2019-02-11T08:08:41.330Z,1005.14
2019-02-11T08:09:34.254Z,1005.16
2019-02-11T08:10:36.285Z,1005.24
2019-02-11T08:11:34.206Z,1005.17
2019-02-11T08:12:35.178Z,1005.22
2019-02-11T08:13:34.110Z,1005.27
2019-02-11T08:14:42.920Z,1005.33
2019-02-11T08:15:38.552Z,1005.32
2019-02-11T08:16:34.109Z,1005.28
2019-02-11T08:17:34.035Z,1005.35
2019-02-11T08:18:35.044Z,1005.40
2019-02-11T08:19:33.940Z,1005.40
2019-02-11T08:20:33.896Z,1005.41
2019-02-11T08:21:33.931Z,1005.39
2019-02-11T08:22:33.843Z,1005.41
2019-02-11T08:23:33.926Z,1005.45
2019-02-11T08:24:33.790Z,1005.53
2019-02-11T08:25:34.856Z,1005.58
2019-02-11T08:26:33.714Z,1005.56
2019-02-11T08:27:33.759Z,1005.55
2019-02-11T08:28:33.643Z,1005.61
2019-02-11T08:29:41.367Z,1005.60
2019-02-11T08:30:33.590Z,1005.71
2019-02-11T08:31:34.637Z,1005.71
2019-02-11T08:32:33.576Z,1005.75
2019-02-11T08:33:33.625Z,1005.77
2019-02-11T08:34:33.541Z,1005.78
2019-02-11T08:35:33.467Z,1005.85
2019-02-11T08:36:33.431Z,1005.85
2019-02-11T08:37:33.431Z,1005.81
2019-02-11T08:38:33.349Z,1005.87
2019-02-11T08:39:33.447Z,1005.84
2019-02-11T08:40:33.282Z,1005.88
2019-02-11T08:41:33.355Z,1005.78
2019-02-11T08:42:33.220Z,1005.89
2019-02-11T08:43:33.316Z,1005.93
2019-02-11T08:44:33.662Z,1005.98
2019-02-11T08:45:33.293Z,1005.98
2019-02-11T08:46:33.112Z,1006.01
2019-02-11T08:47:33.133Z,1006.02
2019-02-11T08:48:33.040Z,1006.06
2019-02-11T08:49:33.030Z,1006.05
2019-02-11T08:50:32.971Z,1006.09
2019-02-11T08:51:33.054Z,1005.99
2019-02-11T08:52:32.917Z,1006.09
2019-02-11T08:53:34.030Z,1006.07
2019-02-11T08:54:32.841Z,1006.13
2019-02-11T08:55:32.875Z,1006.19
2019-02-11T08:56:32.810Z,1006.22
2019-02-11T08:57:32.778Z,1006.21
2019-02-11T08:58:32.727Z,1006.21
2019-02-11T08:59:33.215Z,1006.25
2019-02-11T09:00:32.693Z,1006.29
2019-02-11T09:01:32.716Z,1006.31
2019-02-11T09:02:34.192Z,1006.26
2019-02-11T09:03:32.646Z,1006.32
2019-02-11T09:04:32.582Z,1006.32
2019-02-11T09:05:32.570Z,1006.39
2019-02-11T09:06:32.519Z,1006.45
2019-02-11T09:07:32.583Z,1006.47
2019-02-11T09:08:32.410Z,1006.39
2019-02-11T09:09:32.481Z,1006.45
2019-02-11T09:10:32.408Z,1006.47
2019-02-11T09:11:32.375Z,1006.52
2019-02-11T09:12:32.284Z,1006.63
2019-02-11T09:13:32.277Z,1006.49
2019-02-11T09:14:32.227Z,1006.55
2019-02-11T09:15:32.335Z,1006.53
2019-02-11T09:16:32.151Z,1006.54
2019-02-11T09:17:32.131Z,1006.62
2019-02-11T09:18:32.096Z,1006.61
2019-02-11T09:19:32.080Z,1006.58
2019-02-11T09:20:32.135Z,1006.66
2019-02-11T09:21:32.000Z,1006.62
2019-02-11T09:22:31.969Z,1006.72
2019-02-11T09:23:32.055Z,1006.76
2019-02-11T09:24:31.913Z,1006.76
2019-02-11T09:25:31.881Z,1006.75
2019-02-11T09:26:31.873Z,1006.85
2019-02-11T09:27:31.828Z,1006.85
2019-02-11T09:28:31.802Z,1006.86
2019-02-11T09:29:31.779Z,1006.86
2019-02-11T09:30:31.742Z,1006.92
2019-02-11T09:31:31.798Z,1006.92
2019-02-11T09:32:31.723Z,1006.92
2019-02-11T09:33:31.673Z,1006.96
2019-02-11T09:34:31.606Z,1007.03
2019-02-11T09:35:31.574Z,1007.01
2019-02-11T09:36:31.630Z,1007.04
2019-02-11T09:37:31.528Z,1007.06
2019-02-11T09:38:31.474Z,1007.03
2019-02-11T09:39:31.481Z,1007.07
2019-02-11T09:40:31.436Z,1007.14
2019-02-11T09:41:32.266Z,1007.13
2019-02-11T09:42:31.429Z,1007.19
2019-02-11T09:43:32.373Z,1007.14
2019-02-11T09:44:31.309Z,1007.21
2019-02-11T09:45:38.846Z,1007.30
2019-02-11T09:46:31.252Z,1007.25
2019-02-11T09:47:32.330Z,1007.24
2019-02-11T09:48:31.187Z,1007.29
2019-02-11T09:49:31.194Z,1007.36
2019-02-11T09:50:31.142Z,1007.35
2019-02-11T09:51:38.919Z,1007.35
2019-02-11T09:52:31.058Z,1007.41
2019-02-11T09:53:31.154Z,1007.48
2019-02-11T09:54:31.018Z,1007.47
2019-02-11T09:56:31.273Z,1007.59
2019-02-11T09:57:38.855Z,1007.61
2019-02-11T09:58:30.897Z,1007.57
2019-02-11T09:59:30.861Z,1007.55
2019-02-11T10:00:30.818Z,1007.55
2019-02-11T10:01:30.882Z,1007.57
2019-02-11T10:02:30.745Z,1007.56
2019-02-11T10:03:31.850Z,1007.65
2019-02-11T10:04:30.689Z,1007.65
2019-02-11T10:05:30.697Z,1007.67
2019-02-11T10:06:30.631Z,1007.66
2019-02-11T10:07:30.694Z,1007.69
2019-02-11T10:08:30.585Z,1007.73
2019-02-11T10:09:45.374Z,1007.79
2019-02-11T10:10:30.551Z,1007.80
2019-02-11T10:11:30.530Z,1007.86
2019-02-11T10:12:30.447Z,1007.83
2019-02-11T10:13:30.416Z,1007.84
2019-02-11T10:14:30.437Z,1007.94
2019-02-11T10:15:30.374Z,1007.97
2019-02-11T10:16:30.366Z,1007.98
2019-02-11T10:17:30.329Z,1007.96
2019-02-11T10:18:30.357Z,1007.96
2019-02-11T10:19:30.223Z,1007.96
2019-02-11T10:20:30.193Z,1007.96
2019-02-11T10:21:30.180Z,1007.93
2019-02-11T10:22:30.186Z,1007.99
2019-02-11T10:23:30.096Z,1008.03
2019-02-11T10:24:30.108Z,1008.02
2019-02-11T10:25:30.070Z,1008.02
2019-02-11T10:26:30.009Z,1008.07
2019-02-11T10:27:29.984Z,1008.03
2019-02-11T10:28:29.942Z,1008.07
2019-02-11T10:29:29.899Z,1008.16
2019-02-11T10:30:29.888Z,1008.13
2019-02-11T10:31:29.862Z,1008.15
2019-02-11T10:32:29.812Z,1008.25
2019-02-11T10:33:29.806Z,1008.20
2019-02-11T10:34:29.760Z,1008.30
2019-02-11T10:35:29.736Z,1008.37
2019-02-11T10:36:29.710Z,1008.38
2019-02-11T10:37:29.715Z,1008.37
2019-02-11T10:38:36.253Z,1008.42
2019-02-11T10:39:29.614Z,1008.42
2019-02-11T10:40:29.668Z,1008.47
2019-02-11T10:41:29.555Z,1008.38
2019-02-11T10:42:29.630Z,1008.46
2019-02-11T10:43:29.470Z,1008.49
2019-02-11T10:44:29.519Z,1008.52
2019-02-11T10:45:36.445Z,1008.54
2019-02-11T10:46:29.466Z,1008.50
2019-02-11T10:47:29.392Z,1008.55
2019-02-11T10:48:29.396Z,1008.55
2019-02-11T10:49:30.411Z,1008.64
2019-02-11T10:50:29.316Z,1008.59
2019-02-11T10:51:29.256Z,1008.61
2019-02-11T10:52:29.210Z,1008.63
2019-02-11T10:53:29.291Z,1008.71
2019-02-11T10:54:29.137Z,1008.76
2019-02-11T10:55:29.159Z,1008.80
2019-02-11T10:56:29.192Z,1008.79
2019-02-11T10:57:29.106Z,1008.78
2019-02-11T10:58:29.053Z,1008.82
2019-02-11T10:59:28.987Z,1008.85
2019-02-11T11:00:29.067Z,1008.86
2019-02-11T11:01:28.939Z,1008.84
2019-02-11T11:02:29.034Z,1008.76
2019-02-11T11:03:28.880Z,1008.81
2019-02-11T11:04:28.941Z,1008.74
2019-02-11T11:05:28.796Z,1008.82
2019-02-11T11:06:28.787Z,1008.82
2019-02-11T11:07:28.737Z,1008.89
2019-02-11T11:08:28.783Z,1008.90
2019-02-11T11:09:28.672Z,1009.02
2019-02-11T11:10:28.657Z,1008.96
2019-02-11T11:11:28.686Z,1008.97
2019-02-11T11:12:28.607Z,1009.01
2019-02-11T11:13:28.549Z,1009.03
2019-02-11T11:14:28.543Z,1008.99
2019-02-11T11:15:29.025Z,1008.98
2019-02-11T11:16:29.886Z,1008.99
2019-02-11T11:17:28.437Z,1008.94
2019-02-11T11:18:28.425Z,1008.91
2019-02-11T11:19:28.363Z,1008.91
2019-02-11T11:20:28.360Z,1008.89
2019-02-11T11:21:28.355Z,1009.00
2019-02-11T11:22:28.269Z,1009.03
2019-02-11T11:23:28.243Z,1008.94
2019-02-11T11:24:28.216Z,1008.96
2019-02-11T11:25:28.190Z,1008.98
2019-02-11T11:26:28.169Z,1009.04
2019-02-11T11:27:28.269Z,1009.03
2019-02-11T11:28:28.143Z,1009.03
2019-02-11T11:29:28.092Z,1009.11
2019-02-11T11:30:28.059Z,1009.11
2019-02-11T11:31:27.994Z,1009.11
2019-02-11T11:32:28.031Z,1009.09
2019-02-11T11:33:27.966Z,1009.13
2019-02-11T11:34:27.923Z,1009.10
2019-02-11T11:35:27.886Z,1009.15
2019-02-11T11:36:27.884Z,1009.23
2019-02-11T11:37:27.826Z,1009.27
2019-02-11T11:38:27.779Z,1009.23
2019-02-11T11:39:27.768Z,1009.20
2019-02-11T11:40:27.749Z,1009.20
2019-02-11T11:41:27.866Z,1009.23
2019-02-11T11:42:28.541Z,1009.25
2019-02-11T11:43:27.763Z,1009.26
2019-02-11T11:44:27.615Z,1009.36
2019-02-11T11:45:27.959Z,1009.32
2019-02-11T11:46:27.600Z,1009.41
2019-02-11T11:47:27.510Z,1009.29
2019-02-11T11:48:27.492Z,1009.35
2019-02-11T11:49:27.474Z,1009.38
2019-02-11T11:50:27.405Z,1009.41
2019-02-11T11:51:27.392Z,1009.51
2019-02-11T11:52:27.414Z,1009.67
2019-02-11T11:53:27.448Z,1009.94
2019-02-11T11:54:27.310Z,1010.03
2019-02-11T11:55:27.271Z,1010.36
2019-02-11T11:56:27.312Z,1010.36
2019-02-11T11:57:27.396Z,1010.14
2019-02-11T11:58:27.585Z,1010.07
2019-02-11T11:59:27.207Z,1010.16
2019-02-11T12:00:27.125Z,1010.27
2019-02-11T12:01:27.093Z,1010.28
2019-02-11T12:02:27.094Z,1010.29
2019-02-11T12:03:27.024Z,1010.32
2019-02-11T12:04:27.002Z,1010.38
2019-02-11T12:05:27.025Z,1010.17
2019-02-11T12:06:27.011Z,1010.10
2019-02-11T12:07:26.907Z,1010.20
2019-02-11T12:08:26.877Z,1010.23
2019-02-11T12:09:26.948Z,1010.22
2019-02-11T12:10:26.845Z,1010.28
2019-02-11T12:11:26.807Z,1010.22
2019-02-11T12:12:26.823Z,1010.35
2019-02-11T12:13:26.774Z,1010.35
2019-02-11T12:14:26.759Z,1010.36
2019-02-11T12:15:27.180Z,1010.41